createdAt,value
2022-07-29T00:02:26.411Z,5.90
2022-07-29T00:04:53.767Z,5.90
2022-07-29T00:07:20.971Z,3.65
2022-07-29T00:09:50.848Z,4.72
2022-07-29T00:12:21.417Z,2.70
2022-07-29T00:14:53.550Z,3.05
2022-07-29T00:17:20.662Z,4.00
2022-07-29T00:19:47.893Z,3.30
2022-07-29T00:22:15.341Z,3.38
2022-07-29T00:24:42.736Z,6.18
2022-07-29T00:27:09.867Z,4.38
2022-07-29T00:29:36.984Z,4.05
2022-07-29T00:32:04.383Z,2.88
2022-07-29T00:34:50.595Z,6.20
2022-07-29T00:37:17.863Z,5.50
2022-07-29T00:39:45.090Z,3.20
2022-07-29T00:42:12.209Z,3.63
2022-07-29T00:44:42.972Z,5.60
2022-07-29T00:47:11.295Z,4.88
2022-07-29T00:49:40.290Z,6.70
2022-07-29T00:52:08.220Z,4.95
2022-07-29T00:54:37.157Z,4.38
2022-07-29T00:57:11.622Z,7.38
2022-07-29T00:59:38.749Z,4.03
2022-07-29T01:02:06.078Z,4.20
2022-07-29T01:04:33.664Z,5.32
2022-07-29T01:07:02.850Z,5.65
2022-07-29T01:09:35.041Z,5.68
2022-07-29T01:12:18.391Z,7.03
2022-07-29T01:14:46.076Z,3.78
2022-07-29T01:17:23.077Z,4.90
2022-07-29T01:19:50.625Z,6.15
2022-07-29T01:22:41.137Z,7.55
2022-07-29T01:25:21.713Z,2.97
2022-07-29T01:28:07.629Z,4.25
2022-07-29T01:30:38.541Z,3.55
2022-07-29T01:33:09.368Z,3.15
2022-07-29T01:35:41.586Z,5.28
2022-07-29T01:38:12.586Z,3.42
2022-07-29T01:40:47.027Z,5.78
2022-07-29T01:43:20.475Z,3.28
2022-07-29T01:46:06.026Z,6.00
2022-07-29T01:48:42.213Z,7.53
2022-07-29T01:51:14.022Z,5.57
2022-07-29T01:53:45.786Z,5.35
2022-07-29T01:56:14.139Z,4.28
2022-07-29T01:58:42.640Z,6.85
2022-07-29T02:01:12.055Z,3.70
2022-07-29T02:03:39.997Z,4.20
2022-07-29T02:06:08.255Z,4.68
2022-07-29T02:08:35.899Z,3.65
2022-07-29T02:11:05.291Z,3.75
2022-07-29T02:13:33.237Z,7.47
2022-07-29T02:16:01.759Z,3.17
2022-07-29T02:18:29.805Z,2.38
2022-07-29T02:20:57.840Z,3.83
2022-07-29T02:23:25.645Z,2.40
2022-07-29T02:25:59.425Z,6.20
2022-07-29T02:28:28.401Z,4.78
2022-07-29T02:30:57.374Z,4.53
2022-07-29T02:33:25.675Z,4.65
2022-07-29T02:35:53.843Z,5.30
2022-07-29T02:38:40.657Z,6.78
2022-07-29T02:41:13.022Z,5.45
2022-07-29T02:43:40.967Z,4.72
2022-07-29T02:46:12.724Z,4.55
2022-07-29T02:49:13.644Z,2.78
2022-07-29T02:51:48.837Z,4.05
2022-07-29T02:54:23.846Z,4.65
2022-07-29T02:56:53.623Z,5.38
2022-07-29T02:59:23.715Z,3.58
2022-07-29T03:01:51.329Z,3.85
2022-07-29T03:04:19.926Z,3.10
2022-07-29T03:06:47.842Z,8.05
2022-07-29T03:09:15.044Z,3.47
2022-07-29T03:11:49.988Z,3.22
2022-07-29T03:14:19.511Z,2.80
2022-07-29T03:16:47.733Z,3.25
2022-07-29T03:19:15.114Z,3.95
2022-07-29T03:21:42.274Z,3.33
2022-07-29T03:24:10.850Z,3.55
2022-07-29T03:26:38.418Z,2.88
2022-07-29T03:29:05.540Z,4.43
2022-07-29T03:31:33.547Z,4.30
2022-07-29T03:34:00.895Z,2.85
2022-07-29T03:36:28.179Z,5.75
2022-07-29T03:38:55.647Z,4.90
2022-07-29T03:41:23.747Z,3.13
2022-07-29T03:43:51.372Z,3.80
2022-07-29T03:46:19.491Z,2.80
2022-07-29T03:48:49.579Z,5.65
2022-07-29T03:51:16.844Z,4.82
2022-07-29T03:53:46.112Z,3.33
2022-07-29T03:56:17.834Z,3.30
2022-07-29T03:58:45.563Z,5.18
2022-07-29T04:01:13.460Z,3.47
2022-07-29T04:03:40.801Z,3.88
2022-07-29T04:06:09.612Z,3.83
2022-07-29T04:08:36.811Z,4.45
2022-07-29T04:11:04.432Z,3.35
2022-07-29T04:13:32.168Z,4.60
2022-07-29T04:15:59.597Z,3.50
2022-07-29T04:18:27.031Z,2.50
2022-07-29T04:20:54.210Z,3.45
2022-07-29T04:23:21.369Z,5.82
2022-07-29T04:25:48.539Z,6.07
2022-07-29T04:28:15.679Z,8.57
2022-07-29T04:30:44.326Z,5.22
2022-07-29T04:33:11.652Z,5.40
2022-07-29T04:35:48.169Z,3.20
2022-07-29T04:38:18.044Z,8.23
2022-07-29T04:40:45.431Z,5.65
2022-07-29T04:43:14.391Z,7.82
2022-07-29T04:45:42.745Z,9.18
2022-07-29T04:48:10.055Z,6.95
2022-07-29T04:50:39.553Z,7.20
2022-07-29T04:53:06.882Z,5.57
2022-07-29T04:55:34.001Z,5.13
2022-07-29T04:58:01.219Z,6.13
2022-07-29T05:00:33.274Z,5.57
2022-07-29T05:03:00.945Z,3.95
2022-07-29T05:05:28.219Z,6.25
2022-07-29T05:07:56.196Z,5.80
2022-07-29T05:10:23.578Z,11.02
2022-07-29T05:12:50.670Z,11.35
2022-07-29T05:15:18.619Z,9.70
2022-07-29T05:17:46.010Z,6.70
2022-07-29T05:20:13.225Z,10.25
2022-07-29T05:22:40.335Z,16.33
2022-07-29T05:25:09.295Z,9.55
2022-07-29T05:27:38.305Z,5.07
2022-07-29T05:30:05.991Z,7.93
2022-07-29T05:32:33.187Z,9.85
2022-07-29T05:35:00.290Z,7.88
2022-07-29T05:37:27.456Z,11.25
2022-07-29T05:39:56.552Z,11.50
2022-07-29T05:42:24.225Z,6.65
2022-07-29T05:44:51.843Z,13.23
2022-07-29T05:47:19.160Z,9.40
2022-07-29T05:49:47.051Z,7.35
2022-07-29T05:52:14.364Z,8.27
2022-07-29T05:54:41.697Z,10.25
2022-07-29T05:57:09.046Z,3.22
2022-07-29T05:59:39.418Z,5.60
2022-07-29T06:02:06.587Z,7.75
2022-07-29T06:04:34.609Z,6.93
2022-07-29T06:07:02.741Z,8.45
2022-07-29T06:09:30.169Z,11.35
2022-07-29T06:11:58.893Z,7.35
2022-07-29T06:14:27.432Z,5.97
2022-07-29T06:16:54.580Z,4.35
2022-07-29T06:19:21.731Z,11.73
2022-07-29T06:21:49.219Z,3.97
2022-07-29T06:24:17.164Z,5.63
2022-07-29T06:26:44.783Z,6.50
2022-07-29T06:29:12.344Z,3.22
2022-07-29T06:31:39.875Z,4.68
2022-07-29T06:34:07.396Z,4.40
2022-07-29T06:36:39.697Z,7.20
2022-07-29T06:39:07.865Z,3.60
2022-07-29T06:41:35.132Z,3.65
2022-07-29T06:44:02.342Z,4.07
2022-07-29T06:46:29.906Z,5.38
2022-07-29T06:48:57.304Z,5.78
2022-07-29T06:51:24.790Z,3.22
2022-07-29T06:53:59.931Z,5.18
2022-07-29T06:56:30.685Z,4.80
2022-07-29T06:58:57.785Z,6.75
2022-07-29T07:01:24.981Z,4.95
2022-07-29T07:03:52.205Z,4.40
2022-07-29T07:06:19.456Z,6.40
2022-07-29T07:08:47.586Z,5.50
2022-07-29T07:11:14.959Z,4.30
2022-07-29T07:13:42.158Z,5.40
2022-07-29T07:16:09.368Z,4.97
2022-07-29T07:18:36.519Z,1.80
2022-07-29T07:21:05.915Z,1.73
2022-07-29T07:23:33.019Z,2.47
2022-07-29T07:26:00.174Z,1.65
2022-07-29T07:28:27.389Z,4.57
2022-07-29T07:30:54.531Z,5.35
2022-07-29T07:33:22.184Z,2.92
2022-07-29T07:35:49.359Z,3.67
2022-07-29T07:38:16.477Z,4.30
2022-07-29T07:40:43.598Z,5.05
2022-07-29T07:43:10.742Z,3.75
2022-07-29T07:45:38.465Z,4.55
2022-07-29T07:48:05.982Z,2.88
2022-07-29T07:50:33.215Z,6.82
2022-07-29T07:53:02.924Z,4.80
2022-07-29T07:55:53.262Z,4.30
2022-07-29T07:58:17.237Z,1.48
2022-07-29T08:00:44.626Z,6.15
2022-07-29T08:03:16.662Z,3.55
2022-07-29T08:05:44.623Z,6.93
2022-07-29T08:08:11.778Z,2.33
2022-07-29T08:10:54.192Z,5.38
2022-07-29T08:13:22.293Z,4.18
2022-07-29T08:15:58.480Z,7.00
2022-07-29T08:18:26.211Z,4.47
2022-07-29T08:20:53.365Z,2.65
2022-07-29T08:23:20.642Z,2.35
2022-07-29T08:25:50.131Z,7.13
2022-07-29T08:28:17.602Z,10.13
2022-07-29T08:30:44.747Z,4.63
2022-07-29T08:33:12.121Z,5.57
2022-07-29T08:35:40.526Z,7.50
2022-07-29T08:38:07.732Z,4.22
2022-07-29T08:41:00.489Z,8.52
2022-07-29T08:43:30.374Z,3.67
2022-07-29T08:45:57.629Z,11.90
2022-07-29T08:48:25.803Z,6.20
2022-07-29T08:50:59.408Z,6.43
2022-07-29T08:53:28.316Z,5.70
2022-07-29T08:55:57.220Z,4.05
2022-07-29T08:58:25.550Z,3.83
2022-07-29T09:00:58.085Z,4.35
2022-07-29T09:03:26.753Z,2.13
2022-07-29T09:05:54.556Z,6.38
2022-07-29T09:08:22.098Z,6.88
2022-07-29T09:10:50.254Z,6.65
2022-07-29T09:13:17.441Z,3.00
2022-07-29T09:15:44.635Z,11.45
2022-07-29T09:18:26.745Z,9.70
2022-07-29T09:21:18.400Z,9.80
2022-07-29T09:24:17.366Z,10.07
2022-07-29T09:26:46.123Z,6.45
2022-07-29T09:29:14.656Z,4.70
2022-07-29T09:31:43.389Z,5.75
2022-07-29T09:34:11.509Z,8.07
2022-07-29T09:36:42.563Z,3.92
2022-07-29T09:39:09.861Z,6.40
2022-07-29T09:41:47.210Z,6.75
2022-07-29T09:44:15.787Z,10.75
2022-07-29T09:46:54.495Z,5.70
2022-07-29T09:49:21.869Z,9.38
2022-07-29T09:51:49.100Z,5.05
2022-07-29T09:54:29.223Z,3.08
2022-07-29T09:56:57.166Z,7.30
2022-07-29T09:59:27.637Z,13.07
2022-07-29T10:01:56.065Z,6.32
2022-07-29T10:04:23.464Z,22.85
2022-07-29T10:07:03.804Z,9.75
2022-07-29T10:09:32.445Z,5.25
2022-07-29T10:12:07.146Z,14.18
2022-07-29T10:14:34.742Z,7.80
2022-07-29T10:17:02.503Z,6.75
2022-07-29T10:19:33.023Z,4.68
2022-07-29T10:22:01.181Z,4.43
2022-07-29T10:24:29.160Z,3.55
2022-07-29T10:27:00.270Z,10.00
2022-07-29T10:29:27.437Z,3.72
2022-07-29T10:31:54.782Z,6.47
2022-07-29T10:34:29.802Z,6.53
2022-07-29T10:37:05.620Z,5.03
2022-07-29T10:39:49.725Z,4.05
2022-07-29T10:42:33.987Z,3.83
2022-07-29T10:47:51.062Z,4.97
2022-07-29T10:50:18.635Z,4.05
2022-07-29T10:52:53.683Z,4.53
2022-07-29T10:55:35.907Z,4.53
2022-07-29T10:58:13.278Z,6.85
2022-07-29T11:00:40.422Z,5.53
2022-07-29T11:03:10.574Z,1.58
2022-07-29T11:06:08.831Z,2.22
2022-07-29T11:08:37.241Z,3.58
2022-07-29T11:11:24.684Z,7.85
2022-07-29T11:13:57.239Z,7.13
2022-07-29T11:16:25.157Z,5.22
2022-07-29T11:19:11.543Z,4.00
2022-07-29T11:21:53.746Z,5.45
2022-07-29T11:27:21.979Z,5.57
2022-07-29T11:29:50.564Z,5.22
2022-07-29T11:35:37.543Z,5.13
2022-07-29T11:38:28.064Z,2.35
2022-07-29T11:41:14.219Z,3.88
2022-07-29T11:43:52.339Z,4.05
2022-07-29T11:46:38.764Z,4.40
2022-07-29T11:49:09.782Z,10.57
2022-07-29T11:51:38.717Z,6.93
2022-07-29T11:54:18.712Z,7.65
2022-07-29T11:56:55.920Z,5.65
2022-07-29T11:59:23.227Z,4.28
2022-07-29T12:02:36.502Z,5.60
2022-07-29T12:04:56.414Z,3.95
2022-07-29T12:07:32.736Z,7.82
2022-07-29T12:10:02.591Z,4.80
2022-07-29T12:12:29.986Z,5.93
2022-07-29T12:14:57.113Z,3.22
2022-07-29T12:17:30.516Z,6.75
2022-07-29T12:19:59.272Z,7.40
2022-07-29T12:22:31.093Z,4.68
2022-07-29T12:25:23.244Z,5.35
2022-07-29T12:27:49.502Z,3.30
2022-07-29T12:30:17.615Z,4.18
2022-07-29T12:32:46.734Z,4.60
2022-07-29T12:35:16.032Z,2.35
2022-07-29T12:37:44.019Z,1.60
2022-07-29T12:40:12.694Z,10.95
2022-07-29T12:42:40.095Z,5.38
2022-07-29T12:45:07.602Z,3.65
2022-07-29T12:47:34.858Z,3.05
2022-07-29T12:50:12.967Z,2.97
2022-07-29T12:52:40.374Z,2.58
2022-07-29T12:55:07.753Z,2.15
2022-07-29T12:57:46.934Z,1.77
2022-07-29T13:00:14.997Z,2.80
2022-07-29T13:02:43.536Z,1.40
2022-07-29T13:05:12.300Z,1.10
2022-07-29T13:07:55.709Z,1.73
2022-07-29T13:10:25.768Z,2.28
2022-07-29T13:13:10.429Z,5.28
2022-07-29T13:15:38.734Z,1.23
2022-07-29T13:18:06.718Z,1.00
2022-07-29T13:20:34.186Z,3.85
2022-07-29T13:23:01.819Z,1.30
2022-07-29T13:25:34.043Z,1.35
2022-07-29T13:28:01.242Z,3.28
2022-07-29T13:30:28.773Z,1.25
2022-07-29T13:32:56.507Z,4.97
2022-07-29T13:35:23.614Z,3.60
2022-07-29T13:37:51.943Z,1.27
2022-07-29T13:40:19.148Z,1.67
2022-07-29T13:42:46.352Z,1.38
2022-07-29T13:45:14.184Z,2.00
2022-07-29T13:47:44.792Z,2.30
2022-07-29T13:50:14.934Z,2.13
2022-07-29T13:52:42.055Z,1.90
2022-07-29T13:55:09.631Z,1.95
2022-07-29T13:57:36.860Z,3.00
2022-07-29T14:00:04.150Z,2.10
2022-07-29T14:02:31.260Z,1.52
2022-07-29T14:04:58.738Z,3.65
2022-07-29T14:07:25.995Z,1.88
2022-07-29T14:09:53.146Z,4.43
2022-07-29T14:12:20.536Z,0.80
2022-07-29T14:14:47.728Z,0.80
2022-07-29T14:17:15.229Z,1.92
2022-07-29T14:19:42.358Z,1.75
2022-07-29T14:22:10.707Z,1.45
2022-07-29T14:24:37.968Z,0.77
2022-07-29T14:27:06.040Z,2.50
2022-07-29T14:29:37.343Z,0.50
2022-07-29T14:32:06.595Z,0.60
2022-07-29T14:34:34.438Z,0.68
2022-07-29T14:37:01.683Z,0.57
2022-07-29T14:39:31.959Z,0.75
2022-07-29T14:42:00.315Z,0.85
2022-07-29T14:44:32.031Z,0.60
2022-07-29T14:47:00.633Z,0.80
2022-07-29T14:49:30.790Z,0.60
2022-07-29T14:51:58.012Z,2.40
2022-07-29T14:54:25.236Z,2.00
2022-07-29T14:56:56.120Z,1.10
2022-07-29T14:59:23.371Z,0.63
2022-07-29T15:01:50.859Z,2.03
2022-07-29T15:04:17.995Z,2.67
2022-07-29T15:06:45.137Z,0.80
2022-07-29T15:09:12.429Z,1.08
2022-07-29T15:11:39.575Z,1.15
2022-07-29T15:14:07.490Z,1.10
2022-07-29T15:16:36.811Z,0.88
2022-07-29T15:19:04.253Z,0.77
2022-07-29T15:21:31.413Z,1.13
2022-07-29T15:23:58.705Z,0.90
2022-07-29T15:26:25.809Z,1.10
2022-07-29T15:28:53.215Z,0.88
2022-07-29T15:31:20.405Z,0.93
2022-07-29T15:33:47.648Z,3.83
2022-07-29T15:36:35.646Z,2.85
2022-07-29T15:39:02.227Z,1.27
2022-07-29T15:41:29.392Z,0.70
2022-07-29T15:43:56.494Z,1.13
2022-07-29T15:46:42.416Z,1.45
2022-07-29T15:49:09.856Z,0.95
2022-07-29T15:51:37.095Z,1.25
2022-07-29T15:54:04.728Z,1.30
2022-07-29T15:56:32.097Z,1.20
2022-07-29T15:58:59.263Z,0.73
2022-07-29T16:01:28.282Z,0.65
2022-07-29T16:03:56.083Z,2.22
2022-07-29T16:06:25.205Z,1.00
2022-07-29T16:08:52.304Z,0.68
2022-07-29T16:11:19.410Z,0.88
2022-07-29T16:13:46.592Z,1.30
2022-07-29T16:16:13.934Z,0.50
2022-07-29T16:18:41.052Z,0.57
2022-07-29T16:21:08.143Z,0.75
2022-07-29T16:23:35.258Z,0.85
2022-07-29T16:26:02.397Z,0.70
2022-07-29T16:28:30.324Z,1.83
2022-07-29T16:30:57.523Z,0.70
2022-07-29T16:33:24.982Z,0.95
2022-07-29T16:35:52.551Z,0.77
2022-07-29T16:38:19.839Z,0.70
2022-07-29T16:40:47.170Z,0.70
2022-07-29T16:43:14.306Z,0.60
2022-07-29T16:45:46.102Z,0.45
2022-07-29T16:48:18.138Z,1.00
2022-07-29T16:50:46.106Z,0.50
2022-07-29T16:53:13.236Z,1.77
2022-07-29T16:55:42.300Z,0.60
2022-07-29T16:58:09.757Z,0.50
2022-07-29T17:00:37.137Z,0.70
2022-07-29T17:03:05.398Z,0.60
2022-07-29T17:05:52.701Z,0.77
2022-07-29T17:08:20.141Z,0.65
2022-07-29T17:10:47.573Z,0.70
2022-07-29T17:13:14.781Z,0.73
2022-07-29T17:15:44.749Z,0.82
2022-07-29T17:18:12.837Z,0.70
2022-07-29T17:20:41.330Z,0.70
2022-07-29T17:23:08.449Z,0.68
2022-07-29T17:25:35.725Z,0.95
2022-07-29T17:28:02.907Z,0.68
2022-07-29T17:30:30.483Z,2.60
2022-07-29T17:32:57.693Z,2.00
2022-07-29T17:35:43.362Z,2.25
2022-07-29T17:38:10.545Z,1.20
2022-07-29T17:40:37.664Z,1.15
2022-07-29T17:43:05.008Z,1.80
2022-07-29T17:45:49.960Z,0.88
2022-07-29T17:48:17.985Z,1.10
2022-07-29T17:50:46.538Z,1.33
2022-07-29T17:53:15.598Z,1.73
2022-07-29T17:55:45.685Z,0.90
2022-07-29T17:58:13.062Z,0.85
2022-07-29T18:00:40.329Z,0.80
2022-07-29T18:03:07.563Z,1.27
2022-07-29T18:05:35.025Z,6.30
2022-07-29T18:08:02.387Z,6.00
2022-07-29T18:10:30.252Z,2.00
2022-07-29T18:12:58.420Z,3.78
2022-07-29T18:15:25.772Z,4.68
2022-07-29T18:17:57.590Z,2.63
2022-07-29T18:20:25.191Z,3.33
2022-07-29T18:22:52.317Z,2.47
2022-07-29T18:25:19.553Z,2.20
2022-07-29T18:27:46.736Z,1.58
2022-07-29T18:30:15.219Z,1.95
2022-07-29T18:32:54.289Z,2.83
2022-07-29T18:35:29.628Z,2.47
2022-07-29T18:38:01.609Z,2.17
2022-07-29T18:40:29.884Z,1.92
2022-07-29T18:42:57.148Z,1.55
2022-07-29T18:45:28.419Z,2.70
2022-07-29T18:47:55.961Z,1.83
2022-07-29T18:50:28.795Z,1.77
2022-07-29T18:52:58.360Z,2.58
2022-07-29T18:55:26.177Z,1.77
2022-07-29T18:57:56.046Z,2.30
2022-07-29T19:00:24.604Z,2.00
2022-07-29T19:02:52.727Z,1.70
2022-07-29T19:05:20.170Z,1.80
2022-07-29T19:07:47.281Z,3.90
2022-07-29T19:10:14.577Z,1.73
2022-07-29T19:12:42.385Z,1.70
2022-07-29T19:15:10.618Z,3.40
2022-07-29T19:17:38.669Z,1.45
2022-07-29T19:20:07.497Z,3.22
2022-07-29T19:22:34.872Z,1.90
2022-07-29T19:25:02.085Z,2.40
2022-07-29T19:27:29.257Z,2.65
2022-07-29T19:29:59.237Z,2.42
2022-07-29T19:32:26.991Z,4.93
2022-07-29T19:35:12.559Z,4.10
2022-07-29T19:37:39.698Z,4.60
2022-07-29T19:40:07.270Z,2.45
2022-07-29T19:42:34.580Z,3.05
2022-07-29T19:45:01.710Z,3.75
2022-07-29T19:47:28.941Z,2.97
2022-07-29T19:49:56.238Z,2.75
2022-07-29T19:52:23.480Z,3.05
2022-07-29T19:54:50.721Z,2.85
2022-07-29T19:57:17.876Z,3.97
2022-07-29T19:59:45.102Z,2.97
2022-07-29T20:02:13.105Z,2.97
2022-07-29T20:04:40.637Z,3.08
2022-07-29T20:07:07.927Z,3.28
2022-07-29T20:09:35.071Z,3.35
2022-07-29T20:12:02.236Z,3.25
2022-07-29T20:14:29.446Z,2.60
2022-07-29T20:16:56.574Z,3.40
2022-07-29T20:19:23.698Z,3.95
2022-07-29T20:21:51.462Z,4.05
2022-07-29T20:24:19.145Z,3.92
2022-07-29T20:26:46.273Z,3.22
2022-07-29T20:29:13.706Z,3.40
2022-07-29T20:31:43.189Z,6.80
2022-07-29T20:34:11.096Z,3.53
2022-07-29T20:36:38.300Z,4.20
2022-07-29T20:39:05.428Z,3.80
2022-07-29T20:41:33.917Z,3.88
2022-07-29T20:44:01.690Z,3.78
2022-07-29T20:46:28.876Z,4.45
2022-07-29T20:48:56.043Z,3.50
2022-07-29T20:51:23.375Z,3.50
2022-07-29T20:53:50.542Z,4.00
2022-07-29T20:56:17.724Z,3.92
2022-07-29T20:58:44.958Z,4.32
2022-07-29T21:01:12.129Z,4.18
2022-07-29T21:03:39.347Z,4.25
2022-07-29T21:06:07.784Z,4.35
2022-07-29T21:08:34.892Z,4.15
2022-07-29T21:11:01.999Z,4.85
2022-07-29T21:13:29.172Z,4.13
2022-07-29T21:16:02.610Z,5.07
2022-07-29T21:18:32.863Z,4.55
2022-07-29T21:21:03.556Z,5.63
2022-07-29T21:23:31.180Z,4.97
2022-07-29T21:25:58.534Z,4.55
2022-07-29T21:28:30.532Z,4.65
2022-07-29T21:30:59.066Z,4.50
2022-07-29T21:33:30.641Z,5.40
2022-07-29T21:36:20.350Z,4.18
2022-07-29T21:38:45.326Z,4.10
2022-07-29T21:41:14.744Z,4.40
2022-07-29T21:43:42.490Z,4.32
2022-07-29T21:46:09.780Z,3.92
2022-07-29T21:48:39.161Z,4.68
2022-07-29T21:51:09.575Z,4.82
2022-07-29T21:53:36.994Z,4.30
2022-07-29T21:56:04.375Z,4.10
2022-07-29T21:58:33.147Z,4.50
2022-07-29T22:01:00.302Z,5.00
2022-07-29T22:03:27.514Z,4.70
2022-07-29T22:05:54.798Z,4.10
2022-07-29T22:08:21.972Z,5.03
2022-07-29T22:10:49.046Z,4.32
2022-07-29T22:13:16.700Z,5.07
2022-07-29T22:15:47.036Z,5.57
2022-07-29T22:18:20.699Z,5.20
2022-07-29T22:20:48.235Z,3.88
2022-07-29T22:23:15.411Z,4.28
2022-07-29T22:25:42.532Z,5.03
2022-07-29T22:28:09.660Z,4.47
2022-07-29T22:30:36.781Z,4.40
2022-07-29T22:33:03.991Z,4.60
2022-07-29T22:35:31.184Z,4.68
2022-07-29T22:37:58.284Z,4.63
2022-07-29T22:40:30.803Z,4.50
2022-07-29T22:42:58.153Z,5.25
2022-07-29T22:45:25.244Z,4.50
2022-07-29T22:47:57.416Z,5.03
2022-07-29T22:50:26.577Z,5.35
2022-07-29T22:52:53.704Z,4.28
2022-07-29T22:55:20.805Z,4.15
2022-07-29T22:57:47.956Z,4.13
2022-07-29T23:00:15.392Z,3.70
2022-07-29T23:02:42.625Z,4.05
2022-07-29T23:05:10.483Z,3.67
2022-07-29T23:07:38.734Z,3.67
2022-07-29T23:10:06.376Z,3.67
2022-07-29T23:12:33.491Z,4.53
2022-07-29T23:15:00.713Z,4.22
2022-07-29T23:17:27.828Z,5.85
2022-07-29T23:19:54.900Z,6.18
2022-07-29T23:22:22.014Z,7.38
2022-07-29T23:24:49.180Z,4.38
2022-07-29T23:27:16.348Z,4.55
2022-07-29T23:29:43.462Z,4.20
2022-07-29T23:32:10.645Z,4.03
2022-07-29T23:34:37.814Z,3.95
2022-07-29T23:37:05.144Z,4.00
2022-07-29T23:39:32.240Z,4.03
2022-07-29T23:41:59.435Z,4.38
2022-07-29T23:44:26.542Z,4.50
2022-07-29T23:46:53.645Z,4.32
2022-07-29T23:49:21.046Z,3.90
2022-07-29T23:51:48.159Z,3.90
2022-07-29T23:54:15.305Z,4.25
2022-07-29T23:56:42.390Z,4.15
2022-07-29T23:59:09.711Z,4.22
